createdAt,value
2018-11-14T00:00:16.784Z,58.40
2018-11-14T00:00:54.356Z,57.70
2018-11-14T00:01:31.954Z,57.70
2018-11-14T00:02:09.466Z,57.70
2018-11-14T00:02:46.894Z,57.80
2018-11-14T00:03:24.356Z,57.80
2018-11-14T00:04:02.045Z,57.70
2018-11-14T00:04:39.597Z,57.80
2018-11-14T00:05:17.075Z,57.80
2018-11-14T00:05:54.559Z,57.80
2018-11-14T00:06:32.108Z,58.40
2018-11-14T00:07:09.559Z,57.80
2018-11-14T00:07:47.106Z,57.80
2018-11-14T00:08:24.595Z,57.90
2018-11-14T00:09:02.032Z,57.80
2018-11-14T00:09:39.445Z,57.80
2018-11-14T00:10:17.488Z,57.80
2018-11-14T00:10:54.444Z,57.80
2018-11-14T00:11:31.807Z,57.80
2018-11-14T00:12:09.328Z,57.90
2018-11-14T00:12:46.674Z,57.80
2018-11-14T00:13:23.879Z,57.80
2018-11-14T00:14:01.363Z,57.90
2018-11-14T00:14:38.798Z,57.90
2018-11-14T00:15:16.133Z,57.90
2018-11-14T00:15:53.559Z,57.90
2018-11-14T00:16:30.854Z,57.80
2018-11-14T00:17:08.100Z,57.80
2018-11-14T00:17:45.526Z,57.80
2018-11-14T00:18:23.394Z,57.90
2018-11-14T00:19:00.884Z,57.80
2018-11-14T00:19:38.464Z,57.90
2018-11-14T00:20:15.944Z,57.90
2018-11-14T00:20:53.278Z,57.80
2018-11-14T00:21:30.803Z,57.80
2018-11-14T00:22:08.106Z,57.90
2018-11-14T00:22:45.432Z,57.90
2018-11-14T00:23:22.828Z,57.90
2018-11-14T00:24:00.274Z,57.80
2018-11-14T00:24:37.660Z,57.90
2018-11-14T00:25:15.217Z,57.90
2018-11-14T00:25:52.634Z,57.90
2018-11-14T00:26:30.085Z,57.90
2018-11-14T00:27:07.896Z,57.90
2018-11-14T00:27:45.476Z,57.90
2018-11-14T00:28:23.215Z,57.90
2018-11-14T00:29:00.704Z,57.90
2018-11-14T00:29:38.035Z,57.80
2018-11-14T00:30:15.565Z,57.80
2018-11-14T00:30:53.118Z,57.90
2018-11-14T00:31:30.661Z,57.80
2018-11-14T00:32:08.293Z,57.90
2018-11-14T00:32:45.789Z,57.80
2018-11-14T00:33:23.073Z,57.80
2018-11-14T00:34:00.689Z,57.80
2018-11-14T00:34:38.237Z,57.80
2018-11-14T00:35:15.982Z,57.80
2018-11-14T00:35:53.270Z,58.30
2018-11-14T00:36:30.736Z,57.80
2018-11-14T00:37:08.078Z,57.80
2018-11-14T00:37:45.419Z,57.80
2018-11-14T00:38:23.108Z,57.80
2018-11-14T00:39:00.493Z,57.80
2018-11-14T00:39:37.875Z,57.90
2018-11-14T00:40:15.327Z,57.90
2018-11-14T00:40:52.900Z,57.90
2018-11-14T00:41:30.282Z,57.80
2018-11-14T00:42:07.648Z,57.80
2018-11-14T00:42:45.260Z,57.90
2018-11-14T00:43:22.688Z,57.90
2018-11-14T00:44:00.019Z,57.90
2018-11-14T00:44:37.304Z,57.90
2018-11-14T00:45:14.834Z,57.90
2018-11-14T00:45:52.217Z,57.90
2018-11-14T00:46:29.851Z,57.90
2018-11-14T00:47:07.366Z,57.90
2018-11-14T00:47:44.868Z,57.90
2018-11-14T00:48:22.218Z,57.90
2018-11-14T00:48:59.513Z,57.90
2018-11-14T00:49:37.015Z,57.80
2018-11-14T00:50:14.524Z,57.90
2018-11-14T00:50:52.044Z,57.90
2018-11-14T00:51:29.470Z,57.90
2018-11-14T00:52:06.823Z,58.50
2018-11-14T00:52:44.324Z,57.90
2018-11-14T00:53:21.794Z,57.90
2018-11-14T00:53:59.063Z,57.80
2018-11-14T00:54:36.431Z,57.80
2018-11-14T00:55:13.980Z,57.90
2018-11-14T00:55:51.473Z,57.80
2018-11-14T00:56:28.952Z,57.90
2018-11-14T00:57:06.500Z,57.80
2018-11-14T00:57:43.926Z,57.90
2018-11-14T00:58:21.355Z,57.80
2018-11-14T00:58:58.773Z,57.80
2018-11-14T00:59:36.332Z,57.80
2018-11-14T01:00:13.890Z,57.90
2018-11-14T01:00:51.303Z,57.90
2018-11-14T01:01:28.881Z,57.90
2018-11-14T01:02:06.614Z,57.80
2018-11-14T01:02:44.273Z,57.70
2018-11-14T01:03:21.650Z,57.80
2018-11-14T01:03:59.110Z,57.90
2018-11-14T01:04:36.735Z,57.90
2018-11-14T01:05:14.062Z,57.90
2018-11-14T01:05:51.543Z,57.80
2018-11-14T01:06:28.872Z,57.80
2018-11-14T01:07:06.488Z,57.90
2018-11-14T01:07:44.164Z,57.90
2018-11-14T01:08:21.593Z,57.80
2018-11-14T01:08:59.198Z,57.80
2018-11-14T01:09:36.822Z,57.90
2018-11-14T01:10:14.500Z,57.80
2018-11-14T01:10:51.930Z,57.80
2018-11-14T01:11:29.357Z,57.90
2018-11-14T01:12:07.057Z,57.80
2018-11-14T01:12:44.675Z,57.90
2018-11-14T01:13:22.370Z,57.90
2018-11-14T01:14:00.090Z,57.70
2018-11-14T01:14:37.891Z,57.80
2018-11-14T01:15:15.463Z,57.90
2018-11-14T01:15:52.860Z,57.80
2018-11-14T01:16:30.614Z,57.80
2018-11-14T01:17:08.100Z,57.80
2018-11-14T01:17:45.458Z,57.80
2018-11-14T01:18:22.975Z,57.80
2018-11-14T01:19:00.364Z,57.80
2018-11-14T01:19:37.638Z,57.70
2018-11-14T01:20:15.059Z,57.80
2018-11-14T01:20:52.547Z,57.70
2018-11-14T01:21:29.971Z,57.80
2018-11-14T01:22:07.392Z,57.80
2018-11-14T01:22:44.912Z,57.80
2018-11-14T01:23:22.284Z,57.80
2018-11-14T01:23:59.744Z,57.90
2018-11-14T01:24:37.155Z,57.90
2018-11-14T01:25:14.916Z,57.90
2018-11-14T01:25:52.225Z,57.90
2018-11-14T01:26:29.787Z,57.90
2018-11-14T01:27:07.251Z,57.90
2018-11-14T01:27:44.737Z,57.90
2018-11-14T01:28:22.236Z,57.90
2018-11-14T01:28:59.812Z,57.90
2018-11-14T01:29:37.105Z,57.90
2018-11-14T01:30:14.439Z,57.90
2018-11-14T01:30:52.026Z,57.90
2018-11-14T01:31:29.584Z,57.90
2018-11-14T01:32:07.095Z,58.00
2018-11-14T01:32:44.391Z,58.00
2018-11-14T01:33:21.805Z,58.00
2018-11-14T01:33:59.246Z,58.00
2018-11-14T01:34:36.562Z,57.90
2018-11-14T01:35:14.134Z,58.20
2018-11-14T01:35:51.451Z,58.20
2018-11-14T01:36:29.085Z,58.10
2018-11-14T01:37:06.561Z,58.20
2018-11-14T01:37:43.862Z,58.00
2018-11-14T01:38:21.210Z,57.90
2018-11-14T01:38:58.769Z,57.90
2018-11-14T01:39:36.355Z,58.00
2018-11-14T01:40:14.059Z,58.00
2018-11-14T01:40:51.699Z,58.10
2018-11-14T01:41:29.234Z,58.10
2018-11-14T01:42:06.807Z,58.20
2018-11-14T01:42:44.178Z,58.10
2018-11-14T01:43:21.753Z,58.10
2018-11-14T01:43:59.628Z,58.10
2018-11-14T01:44:37.182Z,58.10
2018-11-14T01:45:14.895Z,58.00
2018-11-14T01:45:52.256Z,58.10
2018-11-14T01:46:29.847Z,58.10
2018-11-14T01:47:07.186Z,58.00
2018-11-14T01:47:44.490Z,58.00
2018-11-14T01:48:21.804Z,57.50
2018-11-14T01:48:59.390Z,58.10
2018-11-14T01:49:37.023Z,58.10
2018-11-14T01:50:14.602Z,58.10
2018-11-14T01:50:52.322Z,58.10
2018-11-14T01:51:29.940Z,58.10
2018-11-14T01:52:07.577Z,58.10
2018-11-14T01:52:45.136Z,58.10
2018-11-14T01:53:22.729Z,58.10
2018-11-14T01:54:00.216Z,58.10
2018-11-14T01:54:37.583Z,58.10
2018-11-14T01:55:14.977Z,58.10
2018-11-14T01:55:52.578Z,58.10
2018-11-14T01:56:29.991Z,58.10
2018-11-14T01:57:07.455Z,58.00
2018-11-14T01:57:44.898Z,58.00
2018-11-14T01:58:22.464Z,58.00
2018-11-14T01:58:59.973Z,57.90
2018-11-14T01:59:37.335Z,58.00
2018-11-14T02:00:15.043Z,58.00
2018-11-14T02:00:52.626Z,58.10
2018-11-14T02:01:30.324Z,58.00
2018-11-14T02:02:07.803Z,58.00
2018-11-14T02:02:45.507Z,58.00
2018-11-14T02:03:22.850Z,58.00
2018-11-14T02:04:00.356Z,58.10
2018-11-14T02:04:37.876Z,58.00
2018-11-14T02:05:15.365Z,58.00
2018-11-14T02:05:53.338Z,58.10
2018-11-14T02:06:30.790Z,57.90
2018-11-14T02:07:08.332Z,58.00
2018-11-14T02:07:45.820Z,58.00
2018-11-14T02:08:23.344Z,57.90
2018-11-14T02:09:00.871Z,57.90
2018-11-14T02:09:38.389Z,57.90
2018-11-14T02:10:15.670Z,58.00
2018-11-14T02:10:53.260Z,57.90
2018-11-14T02:11:30.882Z,58.10
2018-11-14T02:12:08.460Z,57.90
2018-11-14T02:12:46.099Z,57.90
2018-11-14T02:13:23.562Z,57.90
2018-11-14T02:14:00.988Z,57.90
2018-11-14T02:14:38.708Z,57.90
2018-11-14T02:15:16.229Z,57.90
2018-11-14T02:15:53.557Z,58.50
2018-11-14T02:16:31.146Z,57.90
2018-11-14T02:17:08.564Z,57.90
2018-11-14T02:17:46.045Z,57.90
2018-11-14T02:18:23.475Z,57.90
2018-11-14T02:19:00.946Z,57.90
2018-11-14T02:19:38.504Z,57.90
2018-11-14T02:20:16.014Z,57.90
2018-11-14T02:20:53.484Z,57.90
2018-11-14T02:21:30.942Z,57.90
2018-11-14T02:22:08.512Z,57.90
2018-11-14T02:22:46.120Z,57.90
2018-11-14T02:23:23.634Z,57.90
2018-11-14T02:24:01.290Z,57.90
2018-11-14T02:24:38.813Z,57.90
2018-11-14T02:25:16.499Z,58.00
2018-11-14T02:25:53.987Z,57.90
2018-11-14T02:26:31.502Z,57.90
2018-11-14T02:27:08.823Z,58.00
2018-11-14T02:27:46.357Z,58.00
2018-11-14T02:28:23.933Z,58.00
2018-11-14T02:29:01.405Z,58.00
2018-11-14T02:29:38.888Z,58.00
2018-11-14T02:30:16.387Z,58.00
2018-11-14T02:30:54.012Z,58.00
2018-11-14T02:31:31.494Z,58.20
2018-11-14T02:32:08.885Z,58.00
2018-11-14T02:32:46.454Z,57.90
2018-11-14T02:33:23.753Z,57.90
2018-11-14T02:34:01.445Z,58.00
2018-11-14T02:34:38.891Z,58.00
2018-11-14T02:35:16.202Z,57.90
2018-11-14T02:35:53.825Z,58.10
2018-11-14T02:36:31.568Z,57.90
2018-11-14T02:37:08.928Z,57.90
2018-11-14T02:37:46.451Z,57.90
2018-11-14T02:38:24.105Z,57.90
2018-11-14T02:39:01.550Z,57.90
2018-11-14T02:39:39.165Z,58.00
2018-11-14T02:40:16.595Z,58.00
2018-11-14T02:40:54.127Z,57.90
2018-11-14T02:41:31.407Z,58.00
2018-11-14T02:42:08.985Z,58.00
2018-11-14T02:42:46.650Z,58.00
2018-11-14T02:43:24.084Z,58.00
2018-11-14T02:44:01.677Z,58.60
2018-11-14T02:44:39.246Z,58.40
2018-11-14T02:45:16.510Z,57.90
2018-11-14T02:45:53.896Z,58.00
2018-11-14T02:46:31.382Z,57.90
2018-11-14T02:47:08.701Z,57.90
2018-11-14T02:47:46.008Z,57.90
2018-11-14T02:48:23.509Z,57.90
2018-11-14T02:49:01.474Z,57.90
2018-11-14T02:49:39.006Z,57.90
2018-11-14T02:50:16.625Z,58.00
2018-11-14T02:50:54.245Z,58.00
2018-11-14T02:51:31.665Z,57.90
2018-11-14T02:52:09.209Z,58.00
2018-11-14T02:52:46.697Z,57.90
2018-11-14T02:53:24.299Z,57.90
2018-11-14T02:54:02.043Z,57.90
2018-11-14T02:54:39.281Z,58.60
2018-11-14T02:55:16.690Z,57.90
2018-11-14T02:55:54.266Z,58.00
2018-11-14T02:56:31.663Z,57.90
2018-11-14T02:57:09.007Z,57.90
2018-11-14T02:57:46.752Z,58.00
2018-11-14T02:58:24.094Z,58.00
2018-11-14T02:59:01.758Z,57.90
2018-11-14T02:59:39.109Z,57.90
2018-11-14T03:00:16.908Z,57.90
2018-11-14T03:00:54.335Z,58.00
2018-11-14T03:01:31.666Z,57.90
2018-11-14T03:02:09.406Z,57.90
2018-11-14T03:02:46.865Z,57.90
2018-11-14T03:03:24.127Z,58.00
2018-11-14T03:04:01.629Z,57.90
2018-11-14T03:04:39.017Z,57.90
2018-11-14T03:05:16.478Z,58.00
2018-11-14T03:05:53.856Z,57.90
2018-11-14T03:06:31.299Z,57.90
2018-11-14T03:07:08.805Z,57.90
2018-11-14T03:07:46.074Z,57.90
2018-11-14T03:08:23.586Z,57.90
2018-11-14T03:09:01.198Z,58.00
2018-11-14T03:09:38.768Z,58.00
2018-11-14T03:10:16.579Z,58.00
2018-11-14T03:10:54.036Z,58.00
2018-11-14T03:11:31.660Z,58.00
2018-11-14T03:12:08.986Z,58.00
2018-11-14T03:12:46.528Z,58.00
2018-11-14T03:13:23.937Z,57.90
2018-11-14T03:14:01.329Z,57.90
2018-11-14T03:14:38.620Z,57.90
2018-11-14T03:15:16.234Z,58.00
2018-11-14T03:15:53.828Z,58.00
2018-11-14T03:16:31.467Z,57.90
2018-11-14T03:17:09.286Z,57.90
2018-11-14T03:17:46.966Z,57.90
2018-11-14T03:18:24.672Z,57.90
2018-11-14T03:19:02.031Z,57.90
2018-11-14T03:19:39.499Z,57.90
2018-11-14T03:20:16.880Z,57.90
2018-11-14T03:20:54.111Z,57.90
2018-11-14T03:21:31.556Z,57.90
2018-11-14T03:22:08.898Z,58.00
2018-11-14T03:22:46.509Z,57.90
2018-11-14T03:23:23.953Z,57.90
2018-11-14T03:24:01.258Z,57.90
2018-11-14T03:24:38.916Z,57.90
2018-11-14T03:25:16.360Z,58.00
2018-11-14T03:25:53.789Z,57.90
2018-11-14T03:26:31.396Z,57.90
2018-11-14T03:27:08.996Z,58.00
2018-11-14T03:27:46.426Z,58.00
2018-11-14T03:28:23.905Z,58.00
2018-11-14T03:29:01.585Z,57.90
2018-11-14T03:29:39.160Z,58.00
2018-11-14T03:30:16.544Z,57.90
2018-11-14T03:30:54.226Z,57.90
2018-11-14T03:31:31.738Z,58.00
2018-11-14T03:32:09.339Z,58.00
2018-11-14T03:32:46.908Z,58.00
2018-11-14T03:33:24.549Z,58.10
2018-11-14T03:34:01.890Z,58.00
2018-11-14T03:34:39.258Z,58.10
2018-11-14T03:35:16.861Z,58.10
2018-11-14T03:35:54.469Z,58.00
2018-11-14T03:36:31.768Z,58.10
2018-11-14T03:37:09.249Z,58.10
2018-11-14T03:37:46.639Z,58.00
2018-11-14T03:38:24.275Z,58.10
2018-11-14T03:39:01.898Z,58.10
2018-11-14T03:39:39.448Z,58.00
2018-11-14T03:40:16.780Z,58.00
2018-11-14T03:40:54.261Z,58.10
2018-11-14T03:41:31.625Z,58.00
2018-11-14T03:42:08.934Z,58.00
2018-11-14T03:42:46.610Z,58.00
2018-11-14T03:43:24.276Z,58.00
2018-11-14T03:44:01.823Z,58.10
2018-11-14T03:44:39.171Z,58.10
2018-11-14T03:45:16.676Z,58.00
2018-11-14T03:45:54.108Z,58.10
2018-11-14T03:46:31.929Z,58.00
2018-11-14T03:47:09.451Z,58.10
2018-11-14T03:47:46.872Z,58.10
2018-11-14T03:48:24.471Z,58.10
2018-11-14T03:49:02.148Z,58.10
2018-11-14T03:49:39.444Z,58.10
2018-11-14T03:50:16.722Z,58.10
2018-11-14T03:50:54.080Z,58.10
2018-11-14T03:51:31.781Z,58.10
2018-11-14T03:52:09.327Z,58.10
2018-11-14T03:52:47.015Z,58.10
2018-11-14T03:53:24.498Z,58.10
2018-11-14T03:54:01.894Z,58.10
2018-11-14T03:54:39.389Z,58.10
2018-11-14T03:55:16.990Z,58.10
2018-11-14T03:55:54.518Z,58.10
2018-11-14T03:56:31.908Z,58.10
2018-11-14T03:57:09.345Z,58.10
2018-11-14T03:57:46.757Z,58.10
2018-11-14T03:58:24.100Z,58.10
2018-11-14T03:59:01.586Z,58.10
2018-11-14T03:59:39.005Z,58.20
2018-11-14T04:00:16.270Z,58.10
2018-11-14T04:00:53.795Z,58.10
2018-11-14T04:01:31.439Z,58.10
2018-11-14T04:02:09.020Z,58.10
2018-11-14T04:02:46.635Z,58.10
2018-11-14T04:03:24.190Z,58.10
2018-11-14T04:04:01.802Z,58.10
2018-11-14T04:04:39.321Z,58.10
2018-11-14T04:05:16.680Z,58.10
2018-11-14T04:05:54.117Z,58.10
2018-11-14T04:06:31.752Z,58.10
2018-11-14T04:07:09.251Z,58.10
2018-11-14T04:07:46.583Z,58.10
2018-11-14T04:08:24.206Z,58.10
2018-11-14T04:09:01.862Z,58.10
2018-11-14T04:09:39.507Z,58.10
2018-11-14T04:10:17.146Z,58.10
2018-11-14T04:10:54.634Z,58.10
2018-11-14T04:11:31.976Z,58.10
2018-11-14T04:12:09.591Z,58.10
2018-11-14T04:12:47.065Z,58.10
2018-11-14T04:13:24.700Z,58.70
2018-11-14T04:14:02.117Z,58.10
2018-11-14T04:14:39.471Z,58.10
2018-11-14T04:15:16.809Z,58.10
2018-11-14T04:15:54.323Z,58.10
2018-11-14T04:16:31.909Z,58.10
2018-11-14T04:17:09.364Z,58.10
2018-11-14T04:17:46.757Z,58.10
2018-11-14T04:18:24.230Z,58.10
2018-11-14T04:19:01.830Z,58.10
2018-11-14T04:19:39.320Z,58.10
2018-11-14T04:20:17.183Z,58.10
2018-11-14T04:20:54.880Z,58.10
2018-11-14T04:21:32.259Z,58.10
2018-11-14T04:22:09.620Z,58.10
2018-11-14T04:22:47.314Z,58.10
2018-11-14T04:23:24.697Z,58.00
2018-11-14T04:24:02.061Z,58.00
2018-11-14T04:24:39.698Z,58.10
2018-11-14T04:25:17.196Z,58.10
2018-11-14T04:25:54.712Z,58.10
2018-11-14T04:26:32.463Z,58.10
2018-11-14T04:27:09.924Z,58.10
2018-11-14T04:27:47.384Z,58.10
2018-11-14T04:28:24.676Z,58.10
2018-11-14T04:29:01.985Z,58.10
2018-11-14T04:29:39.415Z,58.10
2018-11-14T04:30:16.898Z,58.10
2018-11-14T04:30:54.374Z,58.10
2018-11-14T04:31:31.977Z,58.10
2018-11-14T04:32:09.606Z,58.10
2018-11-14T04:32:46.959Z,58.10
2018-11-14T04:33:24.310Z,58.20
2018-11-14T04:34:01.856Z,58.10
2018-11-14T04:34:39.448Z,58.10
2018-11-14T04:35:16.991Z,58.10
2018-11-14T04:35:54.588Z,58.10
2018-11-14T04:36:32.249Z,58.10
2018-11-14T04:37:09.816Z,58.10
2018-11-14T04:37:47.036Z,58.10
2018-11-14T04:38:24.807Z,58.10
2018-11-14T04:39:02.197Z,58.10
2018-11-14T04:39:39.741Z,58.10
2018-11-14T04:40:17.207Z,58.10
2018-11-14T04:40:54.570Z,58.10
2018-11-14T04:41:32.010Z,58.10
2018-11-14T04:42:09.437Z,58.10
2018-11-14T04:42:47.050Z,58.10
2018-11-14T04:43:24.544Z,58.20
2018-11-14T04:44:01.954Z,58.10
2018-11-14T04:44:39.433Z,58.20
2018-11-14T04:45:16.733Z,58.20
2018-11-14T04:45:54.240Z,58.10
2018-11-14T04:46:31.833Z,58.10
2018-11-14T04:47:09.177Z,58.10
2018-11-14T04:47:46.556Z,58.10
2018-11-14T04:48:24.081Z,58.10
2018-11-14T04:49:01.633Z,58.20
2018-11-14T04:49:39.272Z,58.20
2018-11-14T04:50:16.832Z,58.10
2018-11-14T04:50:54.157Z,58.10
2018-11-14T04:51:31.461Z,58.10
2018-11-14T04:52:09.233Z,58.10
2018-11-14T04:52:46.557Z,58.10
2018-11-14T04:53:24.314Z,58.10
2018-11-14T04:54:02.048Z,58.10
2018-11-14T04:54:39.694Z,58.10
2018-11-14T04:55:17.284Z,58.20
2018-11-14T04:55:54.591Z,58.10
2018-11-14T04:56:32.215Z,58.10
2018-11-14T04:57:09.696Z,58.10
2018-11-14T04:57:47.385Z,58.10
2018-11-14T04:58:24.861Z,58.10
2018-11-14T04:59:02.202Z,58.10
2018-11-14T04:59:39.526Z,58.10
2018-11-14T05:00:17.092Z,58.20
2018-11-14T05:00:54.824Z,58.10
2018-11-14T05:01:32.370Z,58.10
2018-11-14T05:02:09.830Z,58.20
2018-11-14T05:02:47.412Z,58.10
2018-11-14T05:03:25.170Z,58.00
2018-11-14T05:04:02.547Z,58.00
2018-11-14T05:04:40.016Z,58.20
2018-11-14T05:05:17.535Z,58.10
2018-11-14T05:05:54.914Z,58.10
2018-11-14T05:06:32.508Z,58.10
2018-11-14T05:07:10.141Z,58.10
2018-11-14T05:07:47.641Z,58.20
2018-11-14T05:08:25.451Z,58.10
2018-11-14T05:09:02.790Z,58.10
2018-11-14T05:09:40.074Z,58.20
2018-11-14T05:10:17.534Z,58.20
2018-11-14T05:10:54.931Z,58.30
2018-11-14T05:11:32.190Z,58.20
2018-11-14T05:12:09.570Z,58.20
2018-11-14T05:12:47.045Z,58.30
2018-11-14T05:13:24.631Z,58.20
2018-11-14T05:14:02.039Z,58.20
2018-11-14T05:14:39.308Z,58.30
2018-11-14T05:15:16.669Z,58.30
2018-11-14T05:15:54.260Z,58.30
2018-11-14T05:16:31.763Z,58.30
2018-11-14T05:17:09.394Z,58.30
2018-11-14T05:17:47.112Z,58.30
2018-11-14T05:18:24.634Z,58.30
2018-11-14T05:19:02.146Z,58.40
2018-11-14T05:19:39.397Z,58.30
2018-11-14T05:20:17.043Z,58.40
2018-11-14T05:20:54.468Z,58.30
2018-11-14T05:21:32.011Z,58.30
2018-11-14T05:22:09.560Z,58.30
2018-11-14T05:22:46.875Z,58.40
2018-11-14T05:23:24.419Z,58.40
2018-11-14T05:24:01.691Z,58.40
2018-11-14T05:24:39.377Z,58.30
2018-11-14T05:25:17.322Z,58.60
2018-11-14T05:25:54.903Z,58.50
2018-11-14T05:26:32.211Z,58.70
2018-11-14T05:27:09.821Z,58.80
2018-11-14T05:27:47.257Z,58.70
2018-11-14T05:28:24.750Z,58.50
2018-11-14T05:29:02.251Z,59.10
2018-11-14T05:29:39.707Z,58.40
2018-11-14T05:30:17.159Z,58.50
2018-11-14T05:30:54.513Z,58.60
2018-11-14T05:31:31.936Z,58.60
2018-11-14T05:32:09.172Z,58.70
2018-11-14T05:32:46.642Z,58.80
2018-11-14T05:33:24.241Z,58.70
2018-11-14T05:34:01.821Z,58.80
2018-11-14T05:34:39.398Z,59.00
2018-11-14T05:35:17.145Z,58.80
2018-11-14T05:35:54.467Z,58.90
2018-11-14T05:36:31.797Z,58.90
2018-11-14T05:37:09.420Z,58.90
2018-11-14T05:37:46.891Z,59.10
2018-11-14T05:38:24.584Z,58.70
2018-11-14T05:39:02.021Z,59.10
2018-11-14T05:39:39.492Z,58.90
2018-11-14T05:40:17.357Z,59.00
2018-11-14T05:40:54.971Z,59.20
2018-11-14T05:41:32.513Z,59.60
2018-11-14T05:42:09.891Z,60.80
2018-11-14T05:42:47.243Z,60.20
2018-11-14T05:43:24.729Z,60.30
2018-11-14T05:44:02.284Z,60.80
2018-11-14T05:44:39.750Z,61.10
2018-11-14T05:45:17.090Z,61.90
2018-11-14T05:45:54.761Z,62.40
2018-11-14T05:46:32.296Z,61.20
2018-11-14T05:47:09.588Z,62.30
2018-11-14T05:47:46.859Z,61.60
2018-11-14T05:48:24.187Z,61.50
2018-11-14T05:49:01.826Z,62.00
2018-11-14T05:49:39.267Z,61.80
2018-11-14T05:50:16.763Z,61.40
2018-11-14T05:50:54.293Z,62.50
2018-11-14T05:51:31.679Z,62.10
2018-11-14T05:52:09.083Z,64.40
2018-11-14T05:52:46.660Z,64.60
2018-11-14T05:53:24.116Z,65.10
2018-11-14T05:54:01.452Z,65.00
2018-11-14T05:54:39.032Z,63.90
2018-11-14T05:55:16.761Z,65.00
2018-11-14T05:55:54.092Z,63.90
2018-11-14T05:56:31.582Z,65.10
2018-11-14T05:57:08.970Z,66.10
2018-11-14T05:57:46.852Z,65.00
2018-11-14T05:58:24.201Z,66.00
2018-11-14T05:59:01.871Z,65.60
2018-11-14T05:59:39.224Z,66.30
2018-11-14T06:00:16.584Z,66.30
2018-11-14T06:00:54.079Z,63.90
2018-11-14T06:01:31.513Z,63.30
2018-11-14T06:02:08.929Z,64.20
2018-11-14T06:02:46.290Z,62.60
2018-11-14T06:03:23.784Z,63.60
2018-11-14T06:04:01.414Z,63.60
2018-11-14T06:04:38.921Z,64.50
2018-11-14T06:05:16.491Z,63.50
2018-11-14T06:05:54.056Z,63.40
2018-11-14T06:06:31.430Z,64.50
2018-11-14T06:07:09.273Z,63.90
2018-11-14T06:07:46.687Z,63.60
2018-11-14T06:08:23.956Z,64.70
2018-11-14T06:09:01.202Z,65.20
2018-11-14T06:09:38.572Z,65.00
2018-11-14T06:10:15.939Z,67.60
2018-11-14T06:10:53.296Z,68.30
2018-11-14T06:11:30.867Z,69.10
2018-11-14T06:12:08.418Z,69.30
2018-11-14T06:12:45.982Z,68.40
2018-11-14T06:13:23.377Z,68.20
2018-11-14T06:14:00.641Z,67.90
2018-11-14T06:14:38.003Z,67.80
2018-11-14T06:15:15.490Z,67.80
2018-11-14T06:15:53.172Z,67.10
2018-11-14T06:16:30.531Z,67.60
2018-11-14T06:17:08.103Z,67.10
2018-11-14T06:17:45.612Z,66.70
2018-11-14T06:18:22.864Z,66.70
2018-11-14T06:19:00.232Z,66.90
2018-11-14T06:19:37.637Z,66.10
2018-11-14T06:20:15.081Z,67.60
2018-11-14T06:20:52.642Z,67.90
2018-11-14T06:21:30.282Z,67.30
2018-11-14T06:22:07.965Z,66.90
2018-11-14T06:22:45.681Z,66.90
2018-11-14T06:23:23.271Z,66.30
2018-11-14T06:24:01.157Z,66.10
2018-11-14T06:24:38.509Z,66.10
2018-11-14T06:25:15.922Z,67.10
2018-11-14T06:25:53.392Z,67.50
2018-11-14T06:26:30.885Z,67.60
2018-11-14T06:27:08.233Z,67.40
2018-11-14T06:27:45.517Z,66.90
2018-11-14T06:28:23.037Z,66.90
2018-11-14T06:29:00.391Z,66.90
2018-11-14T06:29:37.745Z,67.10
2018-11-14T06:30:15.243Z,66.70
2018-11-14T06:30:52.753Z,66.60
2018-11-14T06:31:30.300Z,66.20
2018-11-14T06:32:07.834Z,66.10
2018-11-14T06:32:45.355Z,66.30
2018-11-14T06:33:23.245Z,65.00
2018-11-14T06:34:00.899Z,66.80
2018-11-14T06:34:38.543Z,66.90
2018-11-14T06:35:15.900Z,66.70
2018-11-14T06:35:53.254Z,67.30
2018-11-14T06:36:30.533Z,66.90
2018-11-14T06:37:07.992Z,67.20
2018-11-14T06:37:45.514Z,66.30
2018-11-14T06:38:23.022Z,66.30
2018-11-14T06:39:00.707Z,66.10
2018-11-14T06:39:38.139Z,65.90
2018-11-14T06:40:15.423Z,66.80
2018-11-14T06:40:52.798Z,65.50
2018-11-14T06:41:30.489Z,66.30
2018-11-14T06:42:08.044Z,66.40
2018-11-14T06:42:45.746Z,65.80
2018-11-14T06:43:23.218Z,66.40
2018-11-14T06:44:00.755Z,66.70
2018-11-14T06:44:38.276Z,66.00
2018-11-14T06:45:15.519Z,65.40
2018-11-14T06:45:52.913Z,64.90
2018-11-14T06:46:30.601Z,65.70
2018-11-14T06:47:07.822Z,65.60
2018-11-14T06:47:45.159Z,65.70
2018-11-14T06:48:22.508Z,65.60
2018-11-14T06:48:59.990Z,66.30
2018-11-14T06:49:37.277Z,65.60
2018-11-14T06:50:14.963Z,64.30
2018-11-14T06:50:52.532Z,64.70
2018-11-14T06:51:30.020Z,65.00
2018-11-14T06:52:07.505Z,65.30
2018-11-14T06:52:45.187Z,65.20
2018-11-14T06:53:22.714Z,63.70
2018-11-14T06:54:00.276Z,64.70
2018-11-14T06:54:37.686Z,65.20
2018-11-14T06:55:15.265Z,64.10
2018-11-14T06:55:52.796Z,65.10
2018-11-14T06:56:30.254Z,64.60
2018-11-14T06:57:07.900Z,61.80
2018-11-14T06:57:45.305Z,64.40
2018-11-14T06:58:22.585Z,65.30
2018-11-14T06:59:00.439Z,64.40
2018-11-14T06:59:38.198Z,64.70
2018-11-14T07:00:15.994Z,64.30
2018-11-14T07:00:53.502Z,64.80
2018-11-14T07:01:31.028Z,64.80
2018-11-14T07:02:08.479Z,65.00
2018-11-14T07:02:46.014Z,65.60
2018-11-14T07:03:23.456Z,65.10
2018-11-14T07:04:01.156Z,64.80
2018-11-14T07:04:38.673Z,64.70
2018-11-14T07:05:16.439Z,64.60
2018-11-14T07:05:53.976Z,64.50
2018-11-14T07:06:31.404Z,63.30
2018-11-14T07:07:08.836Z,63.00
2018-11-14T07:07:46.368Z,63.90
2018-11-14T07:08:23.994Z,64.70
2018-11-14T07:09:01.389Z,64.90
2018-11-14T07:09:38.916Z,64.10
2018-11-14T07:10:16.693Z,64.30
2018-11-14T07:10:54.253Z,63.40
2018-11-14T07:11:31.895Z,62.50
2018-11-14T07:12:09.400Z,62.00
2018-11-14T07:12:46.922Z,64.60
2018-11-14T07:13:24.406Z,63.90
2018-11-14T07:14:01.896Z,60.70
2018-11-14T07:14:39.555Z,62.60
2018-11-14T07:15:17.204Z,64.10
2018-11-14T07:15:54.615Z,64.50
2018-11-14T07:16:32.304Z,64.10
2018-11-14T07:17:09.826Z,63.20
2018-11-14T07:17:47.279Z,63.50
2018-11-14T07:18:24.867Z,63.80
2018-11-14T07:19:02.145Z,65.20
2018-11-14T07:19:39.641Z,64.70
2018-11-14T07:20:17.186Z,62.60
2018-11-14T07:20:54.544Z,61.60
2018-11-14T07:21:32.136Z,63.50
2018-11-14T07:22:09.571Z,64.20
2018-11-14T07:22:47.008Z,61.70
2018-11-14T07:23:24.772Z,61.60
2018-11-14T07:24:02.149Z,62.90
2018-11-14T07:24:39.586Z,62.90
2018-11-14T07:25:17.257Z,62.30
2018-11-14T07:25:54.614Z,61.80
2018-11-14T07:26:32.216Z,62.50
2018-11-14T07:27:09.740Z,60.50
2018-11-14T07:27:47.398Z,62.80
2018-11-14T07:28:25.075Z,63.40
2018-11-14T07:29:02.566Z,60.90
2018-11-14T07:29:39.904Z,63.40
2018-11-14T07:30:17.204Z,62.70
2018-11-14T07:30:54.745Z,63.90
2018-11-14T07:31:32.268Z,64.30
2018-11-14T07:32:09.932Z,63.30
2018-11-14T07:32:47.703Z,63.30
2018-11-14T07:33:25.304Z,62.40
2018-11-14T07:34:02.685Z,63.00
2018-11-14T07:34:40.115Z,63.70
2018-11-14T07:35:17.354Z,63.10
2018-11-14T07:35:54.956Z,62.20
2018-11-14T07:36:32.265Z,63.10
2018-11-14T07:37:09.645Z,61.10
2018-11-14T07:37:47.298Z,62.90
2018-11-14T07:38:25.288Z,62.30
2018-11-14T07:39:02.700Z,61.70
2018-11-14T07:39:40.274Z,63.10
2018-11-14T07:40:17.555Z,62.80
2018-11-14T07:40:55.009Z,63.20
2018-11-14T07:41:32.445Z,63.10
2018-11-14T07:42:10.064Z,63.90
2018-11-14T07:42:47.696Z,63.20
2018-11-14T07:43:25.455Z,63.30
2018-11-14T07:44:02.965Z,63.00
2018-11-14T07:44:40.467Z,62.50
2018-11-14T07:45:18.012Z,62.10
2018-11-14T07:45:55.854Z,62.40
2018-11-14T07:46:33.493Z,62.90
2018-11-14T07:47:11.023Z,62.40
2018-11-14T07:47:48.501Z,63.50
2018-11-14T07:48:26.337Z,63.10
2018-11-14T07:49:03.980Z,63.80
2018-11-14T07:49:41.739Z,63.90
2018-11-14T07:50:19.271Z,63.50
2018-11-14T07:50:56.701Z,62.80
2018-11-14T07:51:33.964Z,63.80
2018-11-14T07:52:11.548Z,63.30
2018-11-14T07:52:49.226Z,62.90
2018-11-14T07:53:26.635Z,62.60
2018-11-14T07:54:03.885Z,62.80
2018-11-14T07:54:41.400Z,62.90
2018-11-14T07:55:18.965Z,63.10
2018-11-14T07:55:56.535Z,63.50
2018-11-14T07:56:34.216Z,62.60
2018-11-14T07:57:11.545Z,62.70
2018-11-14T07:57:49.109Z,62.80
2018-11-14T07:58:26.588Z,63.60
2018-11-14T07:59:03.926Z,63.40
2018-11-14T07:59:41.425Z,63.10
2018-11-14T08:00:18.947Z,63.00
2018-11-14T08:00:56.478Z,62.80
2018-11-14T08:01:34.064Z,62.80
2018-11-14T08:02:11.563Z,62.70
2018-11-14T08:02:49.205Z,62.60